Time;durP1;ratioP1;P1;durP2;ratioP2;P2;SDS_P1;SDS_P2;PMS_P1;PMS_P2;Temp;Humidity;BMP_temperature;BMP_pressure;BME280_temperature;BME280_humidity;BME280_pressure;Samples;Min_cycle;Max_cycle;Signal;HPM_P1;HPM_P2
2022/11/26 00:01:13;;;;;;;36.67;14.00;;;;;;;;;;5015427;28;20180;-78
2022/11/26 00:03:39;;;;;;;35.57;13.93;;;;;;;;;;5016515;28;20223;-78
2022/11/26 00:06:05;;;;;;;34.73;13.63;;;;;;;;;;5015592;28;20185;-78
2022/11/26 00:08:34;;;;;;;34.67;13.20;;;;;;;;;;5016213;28;20188;-79
2022/11/26 00:11:00;;;;;;;45.93;14.33;;;;;;;;;;5016151;28;20177;-79
2022/11/26 00:13:28;;;;;;;35.50;14.77;;;;;;;;;;5015006;28;20339;-79
2022/11/26 00:15:54;;;;;;;40.50;14.27;;;;;;;;;;5015166;28;20200;-79
2022/11/26 00:18:22;;;;;;;39.17;14.50;;;;;;;;;;5015143;28;20184;-79
2022/11/26 00:20:50;;;;;;;40.80;14.50;;;;;;;;;;4999261;28;20185;-79
2022/11/26 00:23:21;;;;;;;36.37;14.37;;;;;;;;;;5014547;28;20178;-79
2022/11/26 00:25:52;;;;;;;41.57;15.20;;;;;;;;;;5014432;28;20201;-79
2022/11/26 00:28:27;;;;;;;40.30;14.53;;;;;;;;;;5014344;28;20192;-79
2022/11/26 00:30:55;;;;;;;41.27;15.47;;;;;;;;;;5014559;28;20263;-79
2022/11/26 00:33:21;;;;;;;41.70;14.93;;;;;;;;;;5015347;28;20216;-79
2022/11/26 00:35:48;;;;;;;38.87;15.40;;;;;;;;;;5014410;28;20184;-81
2022/11/26 00:38:16;;;;;;;38.93;15.93;;;;;;;;;;5014145;28;20183;-80
2022/11/26 00:40:42;;;;;;;43.73;16.70;;;;;;;;;;5014426;28;20181;-81
2022/11/26 00:43:10;;;;;;;31.93;15.13;;;;;;;;;;5014593;28;20232;-81
2022/11/26 00:45:36;;;;;;;35.07;15.00;;;;;;;;;;5015529;28;20188;-81
2022/11/26 00:48:02;;;;;;;43.40;15.80;;;;;;;;;;5014331;28;20239;-81
2022/11/26 00:50:31;;;;;;;46.47;16.30;;;;;;;;;;5015496;28;20188;-81
2022/11/26 00:52:57;;;;;;;36.90;14.77;;;;;;;;;;5014838;28;20243;-84
2022/11/26 00:55:26;;;;;;;39.07;14.90;;;;;;;;;;5014990;28;20174;-85
2022/11/26 00:57:52;;;;;;;43.57;16.50;;;;;;;;;;5014413;28;20204;-85
2022/11/26 01:00:19;;;;;;;33.73;14.70;;;;;;;;;;5014236;28;20182;-84
2022/11/26 01:02:45;;;;;;;35.47;14.80;;;;;;;;;;5014223;28;20256;-85
2022/11/26 01:05:12;;;;;;;31.93;13.90;;;;;;;;;;5014037;28;20181;-85
2022/11/26 01:07:38;;;;;;;34.00;14.63;;;;;;;;;;5015056;28;20189;-84
2022/11/26 01:10:04;;;;;;;32.70;13.47;;;;;;;;;;5015065;28;20264;-81
2022/11/26 01:12:30;;;;;;;33.43;15.07;;;;;;;;;;5014953;28;20216;-85
2022/11/26 01:14:57;;;;;;;31.73;13.93;;;;;;;;;;4997919;28;20182;-80
2022/11/26 01:17:23;;;;;;;33.93;15.27;;;;;;;;;;5013916;28;20209;-80
2022/11/26 01:19:49;;;;;;;29.47;13.50;;;;;;;;;;5013859;28;20188;-80
2022/11/26 01:22:22;;;;;;;31.23;14.33;;;;;;;;;;5014110;28;20186;-80
2022/11/26 01:25:23;;;;;;;32.77;13.50;;;;;;;;;;5014408;28;20305;-85
2022/11/26 01:28:00;;;;;;;28.87;13.40;;;;;;;;;;5011701;28;20192;-85
2022/11/26 01:33:38;;;;;;;30.50;13.43;;;;;;;;;;5018079;28;20207;-85
2022/11/26 01:36:13;;;;;;;31.70;14.00;;;;;;;;;;5016201;28;20181;-85
2022/11/26 01:38:42;;;;;;;36.83;14.00;;;;;;;;;;5014058;28;20275;-85
2022/11/26 01:41:23;;;;;;;36.67;13.90;;;;;;;;;;5014014;28;20174;-85
2022/11/26 01:44:07;;;;;;;29.47;12.90;;;;;;;;;;5014733;28;20208;-77
2022/11/26 01:46:35;;;;;;;21.37;12.57;;;;;;;;;;5013653;28;20258;-77
2022/11/26 01:49:21;;;;;;;26.10;12.87;;;;;;;;;;5013246;28;20275;-77
2022/11/26 01:51:49;;;;;;;33.50;13.43;;;;;;;;;;5014468;28;20201;-78
2022/11/26 01:54:16;;;;;;;33.83;13.10;;;;;;;;;;5013427;28;20196;-77
2022/11/26 01:56:47;;;;;;;26.87;12.97;;;;;;;;;;5014489;28;20169;-77
2022/11/26 01:59:23;;;;;;;26.40;13.20;;;;;;;;;;5013651;28;20180;-79
2022/11/26 02:01:51;;;;;;;31.47;13.17;;;;;;;;;;5014486;28;20181;-80
2022/11/26 02:04:19;;;;;;;30.03;13.20;;;;;;;;;;5013221;28;20205;-80
2022/11/26 02:06:46;;;;;;;28.07;13.23;;;;;;;;;;5013341;28;20208;-80
2022/11/26 02:09:12;;;;;;;26.37;13.43;;;;;;;;;;5013727;28;20187;-80
2022/11/26 02:11:38;;;;;;;27.30;13.10;;;;;;;;;;5013180;28;20300;-80
2022/11/26 02:14:10;;;;;;;21.63;12.80;;;;;;;;;;5013494;28;20184;-80
2022/11/26 02:16:55;;;;;;;31.50;13.00;;;;;;;;;;5014269;28;20173;-79
2022/11/26 02:19:40;;;;;;;23.37;12.63;;;;;;;;;;5013118;28;20177;-79
2022/11/26 02:22:09;;;;;;;19.30;12.20;;;;;;;;;;5013060;28;20189;-79
2022/11/26 02:24:48;;;;;;;21.33;13.00;;;;;;;;;;5014368;28;20302;-79
2022/11/26 02:27:14;;;;;;;22.90;12.63;;;;;;;;;;5013685;28;20181;-79
2022/11/26 02:30:01;;;;;;;26.13;14.20;;;;;;;;;;5013647;28;20189;-79
2022/11/26 02:32:36;;;;;;;25.57;13.40;;;;;;;;;;5012713;28;20244;-85
2022/11/26 02:35:21;;;;;;;27.33;13.73;;;;;;;;;;5013542;28;20176;-85
2022/11/26 02:37:49;;;;;;;29.80;14.13;;;;;;;;;;5013727;28;20173;-85
2022/11/26 02:40:15;;;;;;;31.20;14.83;;;;;;;;;;5013773;28;20181;-85
2022/11/26 02:42:41;;;;;;;23.13;13.07;;;;;;;;;;4996481;28;20193;-85
2022/11/26 02:45:16;;;;;;;29.40;14.70;;;;;;;;;;4979226;28;20198;-85
2022/11/26 02:47:43;;;;;;;29.63;14.93;;;;;;;;;;4994013;28;20256;-85
2022/11/26 02:50:12;;;;;;;28.20;14.67;;;;;;;;;;4993823;28;20208;-80
2022/11/26 02:52:40;;;;;;;31.27;15.53;;;;;;;;;;4996708;28;20225;-80
2022/11/26 02:55:07;;;;;;;24.00;13.53;;;;;;;;;;4997665;28;20178;-80
2022/11/26 02:57:33;;;;;;;25.40;13.87;;;;;;;;;;4996690;28;20186;-80
2022/11/26 03:00:00;;;;;;;27.83;14.37;;;;;;;;;;4998417;28;20201;-80
2022/11/26 03:02:31;;;;;;;24.87;13.60;;;;;;;;;;5012952;28;20197;-80
2022/11/26 03:04:59;;;;;;;24.10;13.17;;;;;;;;;;4997627;28;20174;-77
2022/11/26 03:07:28;;;;;;;23.50;13.20;;;;;;;;;;5012943;28;20186;-77
2022/11/26 03:09:55;;;;;;;26.17;13.57;;;;;;;;;;5012616;28;20281;-77
2022/11/26 03:12:22;;;;;;;20.63;13.67;;;;;;;;;;5012618;28;20210;-77
2022/11/26 03:14:48;;;;;;;22.47;13.50;;;;;;;;;;5012503;28;20178;-77
2022/11/26 03:17:14;;;;;;;28.00;14.37;;;;;;;;;;5015843;28;20200;-77
2022/11/26 03:19:41;;;;;;;25.10;14.63;;;;;;;;;;5016947;28;20205;-77
2022/11/26 03:22:07;;;;;;;25.73;14.60;;;;;;;;;;5015974;28;20185;-78
2022/11/26 03:24:33;;;;;;;26.77;15.57;;;;;;;;;;5015738;28;20239;-78
2022/11/26 03:26:59;;;;;;;21.97;13.83;;;;;;;;;;5015612;28;20173;-78
2022/11/26 03:29:25;;;;;;;25.43;14.17;;;;;;;;;;4999463;28;20185;-78
2022/11/26 03:31:51;;;;;;;26.27;14.63;;;;;;;;;;5013525;28;20288;-78
2022/11/26 03:34:17;;;;;;;28.60;14.80;;;;;;;;;;5016236;28;20186;-78
2022/11/26 03:36:43;;;;;;;30.70;14.30;;;;;;;;;;5015681;28;20174;-85
2022/11/26 03:39:09;;;;;;;28.83;15.00;;;;;;;;;;5015560;28;20183;-80
2022/11/26 03:41:35;;;;;;;29.13;14.70;;;;;;;;;;5016762;28;20229;-80
2022/11/26 03:44:01;;;;;;;27.10;14.60;;;;;;;;;;5015801;28;20216;-80
2022/11/26 03:46:27;;;;;;;28.37;13.90;;;;;;;;;;4999483;28;20190;-80
2022/11/26 03:48:53;;;;;;;34.63;15.00;;;;;;;;;;4999355;28;20233;-80
2022/11/26 03:51:19;;;;;;;25.93;14.67;;;;;;;;;;4999412;28;20185;-80
2022/11/26 03:53:46;;;;;;;27.50;14.60;;;;;;;;;;4999274;28;20279;-80
2022/11/26 03:56:12;;;;;;;26.57;15.33;;;;;;;;;;4999384;28;20181;-80
2022/11/26 03:58:38;;;;;;;24.07;13.90;;;;;;;;;;5015319;28;20243;-80
2022/11/26 04:03:39;;;;;;;27.70;14.85;;;;;;;;;;5014652;28;20463;-77
2022/11/26 04:06:05;;;;;;;27.47;14.73;;;;;;;;;;5014832;28;20170;-78
2022/11/26 04:08:31;;;;;;;25.20;13.90;;;;;;;;;;4982356;28;20193;-77
2022/11/26 04:10:57;;;;;;;24.13;13.50;;;;;;;;;;5014803;28;20236;-77
2022/11/26 04:13:23;;;;;;;19.10;13.07;;;;;;;;;;5015024;28;20204;-76
2022/11/26 04:15:49;;;;;;;20.73;13.27;;;;;;;;;;4983429;28;20188;-76
2022/11/26 04:18:15;;;;;;;22.30;12.57;;;;;;;;;;5015022;28;20181;-76
2022/11/26 04:20:41;;;;;;;25.23;13.10;;;;;;;;;;4998993;28;20189;-76
2022/11/26 04:23:08;;;;;;;26.17;13.47;;;;;;;;;;5014981;28;20185;-76
2022/11/26 04:25:34;;;;;;;25.00;14.10;;;;;;;;;;5015906;28;20185;-76
2022/11/26 04:28:00;;;;;;;22.60;13.60;;;;;;;;;;5014845;28;20212;-77
2022/11/26 04:30:26;;;;;;;22.07;13.10;;;;;;;;;;5014746;28;20189;-77
2022/11/26 04:32:52;;;;;;;29.10;13.43;;;;;;;;;;5014889;28;20209;-78
2022/11/26 04:35:18;;;;;;;23.35;16.45;;;;;;;;;;5014060;28;20445;-78
2022/11/26 04:37:44;;;;;;;21.87;13.87;;;;;;;;;;4982347;28;20276;-78
2022/11/26 04:40:10;;;;;;;23.13;13.43;;;;;;;;;;4982237;28;20185;-76
2022/11/26 04:42:36;;;;;;;22.08;16.33;;;;;;;;;;5013777;28;20433;-76
2022/11/26 04:45:02;;;;;;;25.20;13.23;;;;;;;;;;4982534;28;20181;-78
2022/11/26 04:47:28;;;;;;;26.43;13.20;;;;;;;;;;4981862;28;20190;-78
2022/11/26 04:49:54;;;;;;;19.53;12.30;;;;;;;;;;5014406;28;20177;-78
2022/11/26 04:52:20;;;;;;;20.13;12.40;;;;;;;;;;4987578;28;20209;-78
2022/11/26 04:54:46;;;;;;;31.33;13.57;;;;;;;;;;4983315;28;20182;-78
2022/11/26 04:57:12;;;;;;;27.53;13.17;;;;;;;;;;5014490;28;20174;-78
2022/11/26 04:59:38;;;;;;;18.87;12.53;;;;;;;;;;5014037;28;20189;-78
2022/11/26 05:02:04;;;;;;;18.27;12.33;;;;;;;;;;5009333;28;20248;-78
2022/11/26 05:04:30;;;;;;;23.60;12.63;;;;;;;;;;5014253;28;20181;-78
2022/11/26 05:06:56;;;;;;;22.57;12.63;;;;;;;;;;5015373;28;20177;-78
2022/11/26 05:09:22;;;;;;;18.77;12.27;;;;;;;;;;5014449;28;20185;-76
2022/11/26 05:11:48;;;;;;;21.17;13.17;;;;;;;;;;5014207;28;20335;-76
2022/11/26 05:14:14;;;;;;;24.80;13.60;;;;;;;;;;4997189;28;20189;-76
2022/11/26 05:16:40;;;;;;;21.93;12.67;;;;;;;;;;4992716;28;20185;-76
2022/11/26 05:19:06;;;;;;;20.23;12.40;;;;;;;;;;4997636;28;20193;-78
2022/11/26 05:21:32;;;;;;;21.00;12.70;;;;;;;;;;4997560;28;20184;-79
2022/11/26 05:23:58;;;;;;;21.63;12.40;;;;;;;;;;5014965;28;20208;-79
2022/11/26 05:26:24;;;;;;;28.97;14.23;;;;;;;;;;5013981;28;20275;-78
2022/11/26 05:28:50;;;;;;;29.00;14.30;;;;;;;;;;5013656;28;20187;-78
2022/11/26 05:31:16;;;;;;;30.10;16.48;;;;;;;;;;5013306;28;20395;-78
2022/11/26 05:33:42;;;;;;;22.10;14.60;;;;;;;;;;5014723;28;20173;-78
2022/11/26 05:36:08;;;;;;;25.70;13.20;;;;;;;;;;4989247;28;20182;-79
2022/11/26 05:38:34;;;;;;;29.88;17.92;;;;;;;;;;4985280;28;20432;-79
2022/11/26 05:41:00;;;;;;;21.13;13.90;;;;;;;;;;5012968;28;20197;-79
2022/11/26 05:43:26;;;;;;;30.17;14.53;;;;;;;;;;4986691;28;20390;-79
2022/11/26 05:45:52;;;;;;;25.02;13.48;;;;;;;;;;5006778;28;20354;-79
2022/11/26 05:48:18;;;;;;;29.83;17.52;;;;;;;;;;5006679;28;20407;-79
2022/11/26 05:50:44;;;;;;;28.00;14.30;;;;;;;;;;5012507;28;20219;-79
2022/11/26 05:53:10;;;;;;;34.17;17.85;;;;;;;;;;5012707;28;20434;-76
2022/11/26 05:55:36;;;;;;;26.90;14.97;;;;;;;;;;5013405;28;20188;-76
2022/11/26 05:58:03;;;;;;;33.87;18.20;;;;;;;;;;5012795;28;20503;-76
2022/11/26 06:00:29;;;;;;;33.83;20.45;;;;;;;;;;5012930;28;20414;-77
2022/11/26 06:02:55;;;;;;;30.00;17.13;;;;;;;;;;5012104;28;20439;-77
2022/11/26 06:05:21;;;;;;;26.23;16.63;;;;;;;;;;5012648;28;20407;-77
2022/11/26 06:07:46;;;;;;;22.27;14.07;;;;;;;;;;4987144;28;20178;-77
2022/11/26 06:10:13;;;;;;;27.20;17.15;;;;;;;;;;4983019;28;20421;-76
2022/11/26 06:12:39;;;;;;;25.43;14.43;;;;;;;;;;5013228;28;20215;-75
2022/11/26 06:15:05;;;;;;;38.20;19.10;;;;;;;;;;4996878;28;20411;-76
2022/11/26 06:17:31;;;;;;;38.60;19.93;;;;;;;;;;4996440;28;20539;-76
2022/11/26 06:19:57;;;;;;;41.97;20.00;;;;;;;;;;4996004;28;20427;-76
2022/11/26 06:22:23;;;;;;;57.77;16.37;;;;;;;;;;4982584;28;20309;-76
2022/11/26 06:24:49;;;;;;;32.17;13.37;;;;;;;;;;5015165;28;20169;-78
2022/11/26 06:27:15;;;;;;;95.13;15.57;;;;;;;;;;5017119;28;20181;-78
2022/11/26 06:29:41;;;;;;;42.47;13.50;;;;;;;;;;5017305;28;20188;-78
2022/11/26 06:32:07;;;;;;;37.17;13.23;;;;;;;;;;5016785;28;20209;-78
2022/11/26 06:34:33;;;;;;;60.73;14.90;;;;;;;;;;4997412;28;20320;-78
2022/11/26 06:36:59;;;;;;;58.83;14.17;;;;;;;;;;5001060;28;20187;-79
2022/11/26 06:39:25;;;;;;;48.70;13.40;;;;;;;;;;4994125;28;20235;-78
2022/11/26 06:41:51;;;;;;;62.73;13.20;;;;;;;;;;5017797;28;20216;-84
2022/11/26 06:44:17;;;;;;;57.27;13.40;;;;;;;;;;4989854;28;20204;-83
2022/11/26 06:46:43;;;;;;;50.80;13.10;;;;;;;;;;4991776;28;20182;-83
2022/11/26 06:49:09;;;;;;;55.17;13.20;;;;;;;;;;4984226;28;20189;-83
2022/11/26 06:51:35;;;;;;;64.73;13.20;;;;;;;;;;5000211;28;20185;-82
2022/11/26 06:54:01;;;;;;;67.90;14.27;;;;;;;;;;4999441;28;20289;-83
2022/11/26 06:56:27;;;;;;;63.40;14.23;;;;;;;;;;4984046;28;20185;-83
2022/11/26 06:58:54;;;;;;;65.97;14.23;;;;;;;;;;5000473;28;20177;-83
2022/11/26 07:01:22;;;;;;;50.03;13.33;;;;;;;;;;5000064;28;20185;-83
2022/11/26 07:03:48;;;;;;;75.30;12.30;;;;;;;;;;5016731;28;20202;-84
2022/11/26 07:06:19;;;;;;;60.23;12.13;;;;;;;;;;5015067;28;20212;-83
2022/11/26 07:08:45;;;;;;;59.70;13.17;;;;;;;;;;5017368;28;20181;-83
2022/11/26 07:11:11;;;;;;;74.33;13.57;;;;;;;;;;4984085;28;20292;-82
2022/11/26 07:13:37;;;;;;;61.07;13.27;;;;;;;;;;5016086;28;20216;-82
2022/11/26 07:16:04;;;;;;;66.90;13.10;;;;;;;;;;4989283;28;20192;-76
2022/11/26 07:18:30;;;;;;;50.90;11.87;;;;;;;;;;5014858;28;20181;-76
2022/11/26 07:20:56;;;;;;;84.77;13.83;;;;;;;;;;4999266;28;20182;-76
2022/11/26 07:23:22;;;;;;;66.37;14.13;;;;;;;;;;4999976;28;20200;-76
2022/11/26 07:25:48;;;;;;;69.60;13.57;;;;;;;;;;4982409;28;20189;-75
2022/11/26 07:28:14;;;;;;;54.67;13.20;;;;;;;;;;4999756;28;20196;-76
2022/11/26 07:30:40;;;;;;;49.50;13.23;;;;;;;;;;4983982;28;20188;-77
2022/11/26 07:33:06;;;;;;;37.73;13.27;;;;;;;;;;4983481;28;20216;-78
2022/11/26 07:35:32;;;;;;;49.43;13.70;;;;;;;;;;4982187;28;20239;-78
2022/11/26 07:37:58;;;;;;;50.13;14.53;;;;;;;;;;5007240;28;20204;-78
2022/11/26 07:40:24;;;;;;;51.30;14.80;;;;;;;;;;4987804;28;20193;-78
2022/11/26 07:42:50;;;;;;;57.70;15.83;;;;;;;;;;4997202;28;20201;-78
2022/11/26 07:45:16;;;;;;;50.57;13.30;;;;;;;;;;5001061;28;21068;-78
2022/11/26 07:47:42;;;;;;;59.10;14.63;;;;;;;;;;5015580;28;20273;-78
2022/11/26 07:50:09;;;;;;;49.50;15.97;;;;;;;;;;4982798;28;20252;-78
2022/11/26 07:52:35;;;;;;;44.50;15.80;;;;;;;;;;4978992;28;20206;-78
2022/11/26 07:55:01;;;;;;;43.17;14.17;;;;;;;;;;5008850;28;20192;-78
2022/11/26 07:57:27;;;;;;;39.77;14.10;;;;;;;;;;5016214;28;20174;-78
2022/11/26 07:59:53;;;;;;;41.43;16.00;;;;;;;;;;4982334;28;20188;-78
2022/11/26 08:02:19;;;;;;;45.63;15.63;;;;;;;;;;4998173;28;20235;-78
2022/11/26 08:04:45;;;;;;;40.60;15.47;;;;;;;;;;4997582;28;20274;-82
2022/11/26 08:07:11;;;;;;;35.57;14.67;;;;;;;;;;4998628;28;20217;-82
2022/11/26 08:09:37;;;;;;;37.60;16.10;;;;;;;;;;4982205;28;20201;-82
2022/11/26 08:12:03;;;;;;;38.13;15.83;;;;;;;;;;4997735;28;20212;-79
2022/11/26 08:14:29;;;;;;;38.63;15.83;;;;;;;;;;4999012;28;20182;-79
2022/11/26 08:16:56;;;;;;;46.77;18.00;;;;;;;;;;4998330;28;20224;-79
2022/11/26 08:19:22;;;;;;;30.97;18.17;;;;;;;;;;4998716;28;20188;-79
2022/11/26 08:21:48;;;;;;;41.50;18.97;;;;;;;;;;5015895;28;20212;-82
2022/11/26 08:24:16;;;;;;;35.33;20.77;;;;;;;;;;4982209;28;20213;-82
2022/11/26 08:26:42;;;;;;;29.33;19.47;;;;;;;;;;4998271;28;20184;-82
2022/11/26 08:29:09;;;;;;;41.43;21.87;;;;;;;;;;4980245;28;20193;-82
2022/11/26 08:31:35;;;;;;;41.20;20.83;;;;;;;;;;5003575;28;20273;-82
2022/11/26 08:34:03;;;;;;;50.00;21.33;;;;;;;;;;4994654;28;20181;-82
2022/11/26 08:36:29;;;;;;;55.90;22.60;;;;;;;;;;4994821;28;20266;-82
2022/11/26 08:38:56;;;;;;;58.57;22.30;;;;;;;;;;4994855;28;20209;-81
2022/11/26 08:41:22;;;;;;;41.87;20.93;;;;;;;;;;4995863;28;20173;-82
2022/11/26 08:43:48;;;;;;;58.63;22.53;;;;;;;;;;4995636;28;20269;-82
2022/11/26 08:46:14;;;;;;;63.77;20.93;;;;;;;;;;4994670;28;20269;-82
2022/11/26 08:48:41;;;;;;;88.00;23.20;;;;;;;;;;4978421;28;20194;-76
2022/11/26 08:51:08;;;;;;;63.57;21.60;;;;;;;;;;4978799;28;20182;-76
2022/11/26 08:53:35;;;;;;;47.17;22.37;;;;;;;;;;4995810;28;20210;-76
2022/11/26 08:56:02;;;;;;;59.53;23.87;;;;;;;;;;4994474;28;20172;-77
2022/11/26 08:58:28;;;;;;;81.93;25.27;;;;;;;;;;4978526;28;20186;-77
2022/11/26 09:00:54;;;;;;;42.40;22.30;;;;;;;;;;4994563;28;20178;-77
2022/11/26 09:03:21;;;;;;;38.77;20.40;;;;;;;;;;4994413;28;20276;-77
2022/11/26 09:05:47;;;;;;;32.30;18.07;;;;;;;;;;4995318;28;20182;-75
2022/11/26 09:08:13;;;;;;;25.27;16.80;;;;;;;;;;4978293;28;20270;-76
2022/11/26 09:10:39;;;;;;;21.90;15.10;;;;;;;;;;4978030;28;20190;-76
2022/11/26 09:13:05;;;;;;;20.77;15.47;;;;;;;;;;4994530;28;20659;-79
2022/11/26 09:15:31;;;;;;;20.23;15.63;;;;;;;;;;4978442;28;20185;-76
2022/11/26 09:17:57;;;;;;;20.63;15.43;;;;;;;;;;4977919;28;20181;-76
2022/11/26 09:20:23;;;;;;;24.73;16.07;;;;;;;;;;4994403;28;20245;-76
2022/11/26 09:22:49;;;;;;;21.70;15.93;;;;;;;;;;4995522;28;20221;-76
2022/11/26 09:25:15;;;;;;;24.87;15.90;;;;;;;;;;4978129;28;20178;-76
2022/11/26 09:27:41;;;;;;;22.80;15.90;;;;;;;;;;4994504;28;20217;-76
2022/11/26 09:30:07;;;;;;;22.07;16.87;;;;;;;;;;4977834;28;20182;-76
2022/11/26 09:32:33;;;;;;;22.53;16.33;;;;;;;;;;4993643;28;20209;-76
2022/11/26 09:34:59;;;;;;;26.77;15.70;;;;;;;;;;4977868;28;20178;-76
2022/11/26 09:37:25;;;;;;;24.37;16.40;;;;;;;;;;4977457;28;20190;-76
2022/11/26 09:39:53;;;;;;;26.67;17.30;;;;;;;;;;4977303;28;20192;-76
2022/11/26 09:42:35;;;;;;;30.03;18.93;;;;;;;;;;4993719;28;20188;-76
2022/11/26 09:45:09;;;;;;;29.43;17.47;;;;;;;;;;4993543;28;20249;-77
2022/11/26 09:47:40;;;;;;;29.23;18.63;;;;;;;;;;4993421;28;20181;-77
2022/11/26 09:50:12;;;;;;;30.10;19.43;;;;;;;;;;4994606;28;20237;-77
2022/11/26 09:52:45;;;;;;;23.00;17.33;;;;;;;;;;4994199;28;20437;-77
2022/11/26 09:55:22;;;;;;;29.30;19.43;;;;;;;;;;4994937;28;20178;-77
2022/11/26 09:57:51;;;;;;;29.73;20.30;;;;;;;;;;4995161;28;20174;-77
2022/11/26 10:00:28;;;;;;;31.53;20.87;;;;;;;;;;4993886;28;20192;-77
2022/11/26 10:02:56;;;;;;;37.10;24.97;;;;;;;;;;4992300;28;20237;-76
2022/11/26 10:05:23;;;;;;;35.60;22.83;;;;;;;;;;4993860;28;20189;-76
2022/11/26 10:07:56;;;;;;;42.83;28.77;;;;;;;;;;4977565;28;20186;-76
2022/11/26 10:10:37;;;;;;;48.63;30.50;;;;;;;;;;4994370;28;20253;-76
2022/11/26 10:13:14;;;;;;;37.93;27.57;;;;;;;;;;4993441;28;20205;-76
2022/11/26 10:15:46;;;;;;;36.90;26.87;;;;;;;;;;4993330;28;20173;-76
2022/11/26 10:18:30;;;;;;;41.77;27.23;;;;;;;;;;4994440;28;20206;-78
2022/11/26 10:21:12;;;;;;;40.50;27.30;;;;;;;;;;4993110;28;20182;-78
2022/11/26 10:23:56;;;;;;;46.30;25.73;;;;;;;;;;4993059;28;20186;-79
2022/11/26 10:26:27;;;;;;;38.87;23.17;;;;;;;;;;4994239;28;20178;-79
2022/11/26 10:28:57;;;;;;;36.63;21.97;;;;;;;;;;4994399;28;20182;-79
2022/11/26 10:31:25;;;;;;;40.30;24.00;;;;;;;;;;4994127;28;20178;-79
2022/11/26 10:33:55;;;;;;;40.07;24.97;;;;;;;;;;4993161;28;20209;-79
2022/11/26 10:36:25;;;;;;;50.17;24.00;;;;;;;;;;4993348;28;20182;-82
2022/11/26 10:38:52;;;;;;;45.83;22.63;;;;;;;;;;4993258;28;20209;-82
2022/11/26 10:41:19;;;;;;;47.13;22.33;;;;;;;;;;4994161;28;20261;-82
2022/11/26 10:43:45;;;;;;;44.93;23.10;;;;;;;;;;4992980;28;20196;-82
2022/11/26 10:46:29;;;;;;;38.90;22.17;;;;;;;;;;4976807;28;20186;-82
2022/11/26 10:49:14;;;;;;;43.03;21.97;;;;;;;;;;5008096;28;20204;-81
2022/11/26 10:51:40;;;;;;;37.80;21.30;;;;;;;;;;5013474;28;20169;-77
2022/11/26 10:54:06;;;;;;;43.50;22.50;;;;;;;;;;4980126;28;20255;-77
2022/11/26 10:56:38;;;;;;;39.33;21.07;;;;;;;;;;5012384;28;20177;-76
2022/11/26 10:59:14;;;;;;;33.87;19.17;;;;;;;;;;5013588;28;20184;-76
2022/11/26 11:01:40;;;;;;;37.73;20.07;;;;;;;;;;5012907;28;20229;-77
2022/11/26 11:04:23;;;;;;;44.20;19.70;;;;;;;;;;4996442;28;20181;-77
2022/11/26 11:06:49;;;;;;;44.53;18.60;;;;;;;;;;5012478;28;20200;-77
2022/11/26 11:09:26;;;;;;;36.67;17.87;;;;;;;;;;5012526;28;20188;-77
2022/11/26 11:12:08;;;;;;;37.50;17.57;;;;;;;;;;5014292;28;20303;-77
2022/11/26 11:14:34;;;;;;;37.80;16.17;;;;;;;;;;5015783;28;20173;-77
2022/11/26 11:17:00;;;;;;;35.47;15.90;;;;;;;;;;4983887;28;20208;-78
2022/11/26 11:19:26;;;;;;;33.77;15.80;;;;;;;;;;4999576;28;20193;-78
2022/11/26 11:21:53;;;;;;;36.33;15.67;;;;;;;;;;4999306;28;20177;-78
2022/11/26 11:24:23;;;;;;;29.47;14.63;;;;;;;;;;5016984;28;20246;-78
2022/11/26 11:26:53;;;;;;;31.20;14.93;;;;;;;;;;5016894;28;20173;-82
2022/11/26 11:29:24;;;;;;;36.10;16.02;;;;;;;;;;5016505;28;20411;-82
2022/11/26 11:31:50;;;;;;;34.50;16.35;;;;;;;;;;4998177;28;20466;-82
2022/11/26 11:34:21;;;;;;;31.40;15.18;;;;;;;;;;4999020;28;20403;-82
2022/11/26 11:37:04;;;;;;;29.50;14.27;;;;;;;;;;4983267;28;20185;-82
2022/11/26 11:39:32;;;;;;;34.88;16.02;;;;;;;;;;5015660;28;20434;-82
2022/11/26 11:41:58;;;;;;;34.95;15.23;;;;;;;;;;5002876;28;20419;-82
2022/11/26 11:44:26;;;;;;;34.17;15.57;;;;;;;;;;5014147;28;20411;-83
2022/11/26 11:47:11;;;;;;;36.03;15.68;;;;;;;;;;5014457;28;20415;-83
2022/11/26 11:49:43;;;;;;;30.20;14.70;;;;;;;;;;5015539;28;20395;-83
2022/11/26 11:52:09;;;;;;;35.23;14.83;;;;;;;;;;5014144;28;20503;-83
2022/11/26 11:54:45;;;;;;;34.72;16.85;;;;;;;;;;5015804;28;20493;-83
2022/11/26 11:57:19;;;;;;;37.83;19.30;;;;;;;;;;5014541;28;20415;-83
2022/11/26 12:00:14;;;;;;;32.40;15.30;;;;;;;;;;5015067;28;20415;-78
2022/11/26 12:02:43;;;;;;;33.47;11.60;;;;;;;;;;5016171;28;20225;-78
2022/11/26 12:05:09;;;;;;;27.43;12.03;;;;;;;;;;5015330;28;20223;-79
2022/11/26 12:07:40;;;;;;;29.40;12.57;;;;;;;;;;5014534;28;20419;-79
2022/11/26 12:10:13;;;;;;;32.15;12.45;;;;;;;;;;5014542;28;20411;-79
2022/11/26 12:12:51;;;;;;;24.33;10.47;;;;;;;;;;5015987;28;20250;-79
2022/11/26 12:15:29;;;;;;;28.33;10.93;;;;;;;;;;5015080;28;20173;-79
2022/11/26 12:17:55;;;;;;;28.07;11.33;;;;;;;;;;5014773;28;20465;-79
2022/11/26 12:20:36;;;;;;;27.00;10.60;;;;;;;;;;5015687;28;20260;-83
2022/11/26 12:23:20;;;;;;;29.87;11.33;;;;;;;;;;5014342;28;20185;-83
2022/11/26 12:25:48;;;;;;;29.30;11.00;;;;;;;;;;5014018;28;20231;-82
2022/11/26 12:28:21;;;;;;;31.20;12.03;;;;;;;;;;5013278;28;20192;-82
2022/11/26 12:30:47;;;;;;;26.00;11.30;;;;;;;;;;4997988;28;20219;-83
2022/11/26 12:33:16;;;;;;;27.07;11.67;;;;;;;;;;4998015;28;20213;-77
2022/11/26 12:35:45;;;;;;;24.17;11.80;;;;;;;;;;5016132;28;20200;-76
2022/11/26 12:38:14;;;;;;;28.17;11.50;;;;;;;;;;5015251;28;20201;-77
2022/11/26 12:40:44;;;;;;;25.80;10.93;;;;;;;;;;4998271;28;20192;-77
2022/11/26 12:43:36;;;;;;;22.57;10.30;;;;;;;;;;4997608;28;20191;-76
2022/11/26 12:46:04;;;;;;;26.77;10.80;;;;;;;;;;5011910;28;20193;-77
2022/11/26 12:48:33;;;;;;;29.57;11.00;;;;;;;;;;4997638;28;20228;-83
2022/11/26 12:51:22;;;;;;;28.27;10.60;;;;;;;;;;4996652;28;20189;-82
2022/11/26 12:53:51;;;;;;;26.33;11.07;;;;;;;;;;5014670;28;20342;-83
2022/11/26 12:56:31;;;;;;;31.73;10.90;;;;;;;;;;4997784;28;20217;-82
2022/11/26 12:59:18;;;;;;;25.03;10.27;;;;;;;;;;5014925;28;20169;-83
2022/11/26 13:01:44;;;;;;;28.73;10.50;;;;;;;;;;5001527;28;20415;-83
2022/11/26 13:04:10;;;;;;;22.03;10.10;;;;;;;;;;4991607;28;20196;-83
2022/11/26 13:06:54;;;;;;;24.80;10.73;;;;;;;;;;4981658;28;20216;-78
2022/11/26 13:09:23;;;;;;;27.40;11.67;;;;;;;;;;5031781;28;20195;-78
2022/11/26 13:12:00;;;;;;;25.73;11.13;;;;;;;;;;5034786;28;20169;-78
2022/11/26 13:14:35;;;;;;;24.10;10.30;;;;;;;;;;5034987;28;20176;-78
2022/11/26 13:17:17;;;;;;;22.07;9.67;;;;;;;;;;5034232;28;20176;-78
2022/11/26 13:19:47;;;;;;;28.83;10.90;;;;;;;;;;5016497;28;20417;-79
2022/11/26 13:22:31;;;;;;;23.53;9.20;;;;;;;;;;5033822;28;20185;-78
2022/11/26 13:25:04;;;;;;;30.25;9.90;;;;;;;;;;5016609;28;20443;-78
2022/11/26 13:27:41;;;;;;;24.73;8.93;;;;;;;;;;5017350;28;20176;-78
2022/11/26 13:30:17;;;;;;;24.67;9.13;;;;;;;;;;5017205;28;20294;-78
2022/11/26 13:32:43;;;;;;;29.80;9.60;;;;;;;;;;5017036;28;20425;-78
2022/11/26 13:35:32;;;;;;;24.17;8.87;;;;;;;;;;5016462;28;20240;-78
2022/11/26 13:38:07;;;;;;;21.23;7.87;;;;;;;;;;5034348;28;20185;-79
2022/11/26 13:40:43;;;;;;;20.67;8.03;;;;;;;;;;5034409;28;20172;-79
2022/11/26 13:43:09;;;;;;;22.10;8.03;;;;;;;;;;5016992;28;20180;-79
2022/11/26 13:45:53;;;;;;;22.37;8.33;;;;;;;;;;5017212;28;20267;-79
2022/11/26 13:48:22;;;;;;;22.67;7.83;;;;;;;;;;5016901;28;20176;-79
2022/11/26 13:51:00;;;;;;;24.03;9.10;;;;;;;;;;5016816;28;20192;-79
2022/11/26 13:53:30;;;;;;;23.33;8.93;;;;;;;;;;5016762;28;20255;-84
2022/11/26 13:56:00;;;;;;;26.00;8.17;;;;;;;;;;5016797;28;20204;-84
2022/11/26 13:58:33;;;;;;;29.67;8.10;;;;;;;;;;5016842;28;20188;-84
2022/11/26 14:01:27;;;;;;;24.87;8.33;;;;;;;;;;5016763;28;20187;-84
2022/11/26 14:03:53;;;;;;;32.93;8.20;;;;;;;;;;5008617;28;20196;-84
2022/11/26 14:06:19;;;;;;;22.23;7.60;;;;;;;;;;5012340;28;20213;-84
2022/11/26 14:08:47;;;;;;;27.37;7.70;;;;;;;;;;4996706;28;20221;-84
2022/11/26 14:11:33;;;;;;;24.50;7.87;;;;;;;;;;5013016;28;20191;-77
2022/11/26 14:14:34;;;;;;;26.07;7.27;;;;;;;;;;5014089;28;20272;-78
2022/11/26 14:17:00;;;;;;;23.77;7.87;;;;;;;;;;4935063;29;20283;-78
2022/11/26 14:19:41;;;;;;;58.77;25.50;;;;;;;;;;4985231;28;20193;-78
2022/11/26 14:22:07;;;;;;;33.67;9.83;;;;;;;;;;5013655;28;20181;-78
2022/11/26 14:27:22;;;;;;;28.03;8.13;;;;;;;;;;5014534;28;20177;-78
2022/11/26 14:30:08;;;;;;;23.83;8.30;;;;;;;;;;5013217;28;20189;-84
2022/11/26 14:32:43;;;;;;;22.30;7.03;;;;;;;;;;4986861;28;20303;-83
2022/11/26 14:35:30;;;;;;;29.87;7.90;;;;;;;;;;5013605;28;20212;-84
2022/11/26 14:37:57;;;;;;;28.60;7.43;;;;;;;;;;4996530;28;20183;-83
2022/11/26 14:40:25;;;;;;;22.00;6.40;;;;;;;;;;5013145;28;20177;-83